Time;durP1;ratioP1;P1;durP2;ratioP2;P2;SDS_P1;SDS_P2;PMS_P1;PMS_P2;Temp;Humidity;BMP_temperature;BMP_pressure;BME280_temperature;BME280_humidity;BME280_pressure;Samples;Min_cycle;Max_cycle;Signal;HPM_P1;HPM_P2
2024/02/16 00:02:02;;;;;;;7.05;3.40;;;12.80;99.90;;;;;;5034206;28;20088;-65
2024/02/16 00:04:29;;;;;;;6.25;3.50;;;12.80;99.90;;;;;;5035473;28;20401;-65
2024/02/16 00:06:56;;;;;;;7.00;3.35;;;12.80;99.90;;;;;;5035218;28;20037;-65
2024/02/16 00:09:23;;;;;;;6.93;3.40;;;12.80;99.90;;;;;;5035461;28;20125;-65
2024/02/16 00:11:52;;;;;;;8.23;3.60;;;12.80;99.90;;;;;;5035183;28;20076;-65
2024/02/16 00:14:19;;;;;;;6.85;3.67;;;12.80;99.90;;;;;;5034856;28;20159;-65
2024/02/16 00:16:46;;;;;;;6.95;3.45;;;12.80;99.90;;;;;;5035436;28;20095;-65
2024/02/16 00:19:13;;;;;;;7.20;3.60;;;12.90;99.90;;;;;;5035444;28;20431;-65
2024/02/16 00:21:42;;;;;;;8.18;4.00;;;12.90;99.90;;;;;;5035029;28;20038;-64
2024/02/16 00:24:09;;;;;;;5.28;3.10;;;12.90;99.90;;;;;;5035218;28;20057;-65
2024/02/16 00:26:36;;;;;;;5.75;3.05;;;13.00;99.90;;;;;;5034909;28;20103;-65
2024/02/16 00:29:03;;;;;;;7.45;3.65;;;12.90;99.90;;;;;;5033910;28;20049;-65
2024/02/16 00:31:31;;;;;;;5.88;3.83;;;13.00;99.90;;;;;;5034884;28;20042;-65
2024/02/16 00:33:58;;;;;;;7.32;3.60;;;13.00;99.90;;;;;;5035022;28;20051;-65
2024/02/16 00:36:25;;;;;;;7.63;3.47;;;13.00;99.90;;;;;;5034965;28;20045;-64
2024/02/16 00:38:52;;;;;;;7.35;3.38;;;13.10;99.90;;;;;;5033858;28;20385;-64
2024/02/16 00:41:19;;;;;;;8.32;4.15;;;13.10;99.90;;;;;;5033934;28;20073;-65
2024/02/16 00:43:46;;;;;;;6.05;3.58;;;13.10;99.90;;;;;;5034931;28;20421;-65
2024/02/16 00:46:12;;;;;;;8.25;3.58;;;13.20;99.90;;;;;;5034708;28;20046;-65
2024/02/16 00:48:39;;;;;;;6.65;3.90;;;13.20;99.90;;;;;;5034982;28;20065;-65
2024/02/16 00:51:06;;;;;;;8.45;3.90;;;13.20;99.90;;;;;;5034671;28;20474;-65
2024/02/16 00:53:33;;;;;;;6.53;3.70;;;13.20;99.90;;;;;;5033454;28;20509;-65
2024/02/16 00:56:00;;;;;;;9.63;4.22;;;13.20;99.90;;;;;;5034286;28;20037;-65
2024/02/16 00:58:26;;;;;;;7.45;4.15;;;13.20;99.90;;;;;;5034648;28;20073;-65
2024/02/16 01:00:53;;;;;;;8.75;4.45;;;13.20;99.90;;;;;;5034632;28;20033;-65
2024/02/16 01:03:22;;;;;;;8.05;4.60;;;13.20;99.90;;;;;;5034714;28;20130;-65
2024/02/16 01:05:49;;;;;;;9.15;4.50;;;13.20;99.90;;;;;;5034351;28;20073;-65
2024/02/16 01:08:16;;;;;;;7.35;4.22;;;13.30;99.90;;;;;;5034417;28;20434;-65
2024/02/16 01:10:43;;;;;;;5.65;4.35;;;13.30;99.90;;;;;;5034340;28;20045;-65
2024/02/16 01:13:10;;;;;;;8.45;4.43;;;13.30;99.90;;;;;;5034484;28;20115;-65
2024/02/16 01:15:37;;;;;;;8.25;4.20;;;13.30;99.90;;;;;;5034170;28;20095;-65
2024/02/16 01:18:04;;;;;;;9.40;4.45;;;13.30;99.90;;;;;;5034071;28;20092;-64
2024/02/16 01:20:31;;;;;;;7.43;4.40;;;13.30;99.90;;;;;;5034157;28;20045;-64
2024/02/16 01:22:58;;;;;;;7.72;4.85;;;13.30;99.90;;;;;;5034023;28;20061;-65
2024/02/16 01:25:24;;;;;;;8.25;4.47;;;13.30;99.90;;;;;;5033907;28;20045;-64
2024/02/16 01:27:51;;;;;;;7.38;4.68;;;13.30;99.90;;;;;;5034084;28;20136;-65
2024/02/16 01:30:19;;;;;;;8.57;4.78;;;13.30;99.90;;;;;;5033934;28;20049;-65
2024/02/16 01:32:47;;;;;;;7.97;4.70;;;13.40;99.90;;;;;;5034057;28;20478;-65
2024/02/16 01:35:16;;;;;;;9.90;5.00;;;13.40;99.90;;;;;;5033758;28;20041;-65
2024/02/16 01:37:43;;;;;;;7.53;4.68;;;13.40;99.90;;;;;;5033805;28;20042;-65
2024/02/16 01:40:17;;;;;;;9.35;4.30;;;13.30;99.90;;;;;;5033875;28;20044;-65
2024/02/16 01:42:44;;;;;;;8.75;4.53;;;13.30;99.90;;;;;;5033952;28;20522;-65
2024/02/16 01:45:15;;;;;;;8.95;4.78;;;13.30;99.90;;;;;;5033686;28;20037;-65
2024/02/16 01:47:42;;;;;;;10.95;4.57;;;13.30;99.90;;;;;;5033884;28;20048;-65
2024/02/16 01:50:09;;;;;;;11.57;4.93;;;13.30;99.90;;;;;;5033387;28;20049;-65
2024/02/16 01:52:36;;;;;;;7.72;4.38;;;13.30;99.90;;;;;;5033654;28;20558;-64
2024/02/16 01:55:03;;;;;;;10.23;5.07;;;13.20;99.90;;;;;;5033443;28;20041;-65
2024/02/16 01:57:30;;;;;;;11.25;5.35;;;13.20;99.90;;;;;;5033567;28;20463;-64
2024/02/16 01:59:57;;;;;;;7.38;4.70;;;13.20;99.90;;;;;;5033740;28;20033;-65
2024/02/16 02:02:24;;;;;;;8.93;4.50;;;13.20;99.90;;;;;;5033748;28;20382;-65
2024/02/16 02:04:51;;;;;;;10.48;4.60;;;13.20;99.90;;;;;;5033638;28;20488;-64
2024/02/16 02:07:18;;;;;;;10.30;4.65;;;13.10;99.90;;;;;;5033514;28;20041;-64
2024/02/16 02:09:45;;;;;;;9.77;5.00;;;13.10;99.90;;;;;;5033408;28;20159;-65
2024/02/16 02:12:11;;;;;;;10.27;4.68;;;13.10;99.90;;;;;;5033575;28;20046;-65
2024/02/16 02:14:38;;;;;;;11.90;5.32;;;13.10;99.90;;;;;;5033139;28;20053;-65
2024/02/16 02:17:05;;;;;;;12.10;5.32;;;13.10;99.90;;;;;;5033399;28;20041;-65
2024/02/16 02:19:32;;;;;;;11.93;5.30;;;13.00;99.90;;;;;;5033223;28;20076;-64
2024/02/16 02:22:01;;;;;;;10.95;5.30;;;13.00;99.90;;;;;;5033426;28;20143;-65
2024/02/16 02:24:27;;;;;;;12.00;5.53;;;13.00;99.90;;;;;;5033450;28;20041;-65
2024/02/16 02:26:54;;;;;;;12.20;5.97;;;12.90;99.90;;;;;;5033133;28;20077;-65
2024/02/16 02:29:21;;;;;;;9.55;5.53;;;12.90;99.90;;;;;;5033288;28;20041;-65
2024/02/16 02:31:48;;;;;;;14.38;5.43;;;12.90;99.90;;;;;;5033345;28;20036;-65
2024/02/16 02:34:15;;;;;;;9.77;5.25;;;12.90;99.90;;;;;;5033243;28;20038;-65
2024/02/16 02:36:42;;;;;;;11.18;5.57;;;12.90;99.90;;;;;;5032764;28;20482;-64
2024/02/16 02:39:10;;;;;;;7.20;5.28;;;12.80;99.90;;;;;;5033240;28;20038;-64
2024/02/16 02:41:37;;;;;;;13.50;5.05;;;12.80;99.90;;;;;;5033218;28;20076;-65
2024/02/16 02:44:03;;;;;;;11.00;5.97;;;12.80;99.90;;;;;;5033175;28;20390;-65
2024/02/16 02:46:30;;;;;;;11.50;5.63;;;12.80;99.90;;;;;;5032780;28;20042;-65
2024/02/16 02:48:57;;;;;;;10.45;6.25;;;12.80;99.90;;;;;;5033367;28;20358;-65
2024/02/16 02:51:24;;;;;;;9.32;5.82;;;12.80;99.90;;;;;;5032810;28;20076;-65
2024/02/16 02:53:51;;;;;;;9.88;5.43;;;12.80;99.90;;;;;;5033226;28;20129;-65
2024/02/16 02:56:18;;;;;;;11.60;5.65;;;12.80;99.90;;;;;;5032697;28;20044;-65
2024/02/16 02:58:45;;;;;;;7.75;5.45;;;12.80;99.90;;;;;;5032982;28;20047;-65
2024/02/16 03:01:12;;;;;;;8.23;5.57;;;12.80;99.90;;;;;;5034586;28;20038;-64
2024/02/16 03:03:39;;;;;;;9.57;6.38;;;12.70;99.90;;;;;;5036725;28;20099;-65
2024/02/16 03:06:06;;;;;;;7.15;5.15;;;12.80;99.90;;;;;;5036816;28;20128;-60
2024/02/16 03:08:33;;;;;;;11.60;5.45;;;12.80;99.90;;;;;;5036608;28;20073;-61
2024/02/16 03:11:00;;;;;;;7.28;5.05;;;12.70;99.90;;;;;;5035331;28;20055;-61
2024/02/16 03:13:28;;;;;;;8.93;5.65;;;12.80;99.90;;;;;;5036201;28;20049;-60
2024/02/16 03:15:55;;;;;;;8.77;5.50;;;12.70;99.90;;;;;;5036647;28;20123;-61
2024/02/16 03:18:21;;;;;;;9.60;5.50;;;12.70;99.90;;;;;;5035102;28;20087;-61
2024/02/16 03:20:49;;;;;;;12.77;5.47;;;12.70;99.90;;;;;;5036884;28;20359;-61
2024/02/16 03:23:17;;;;;;;10.70;5.68;;;12.70;99.90;;;;;;5036257;28;20045;-61
2024/02/16 03:25:44;;;;;;;9.80;6.25;;;12.60;99.90;;;;;;5036224;28;20045;-61
2024/02/16 03:28:12;;;;;;;8.05;5.40;;;12.70;99.90;;;;;;5036589;28;20103;-61
2024/02/16 03:30:39;;;;;;;8.48;5.25;;;12.70;99.90;;;;;;5036180;28;20556;-61
2024/02/16 03:33:06;;;;;;;9.98;5.28;;;12.70;99.90;;;;;;5036316;28;20128;-60
2024/02/16 03:35:33;;;;;;;7.95;4.97;;;12.60;99.90;;;;;;5035944;28;20152;-61
2024/02/16 03:38:00;;;;;;;13.00;5.13;;;12.60;99.90;;;;;;5035999;28;20517;-61
2024/02/16 03:40:27;;;;;;;8.90;4.75;;;12.60;99.90;;;;;;5036122;28;20061;-61
2024/02/16 03:42:54;;;;;;;8.88;4.68;;;12.60;99.90;;;;;;5035789;28;20041;-61
2024/02/16 03:45:21;;;;;;;8.63;5.35;;;12.60;99.90;;;;;;5036152;28;20131;-61
2024/02/16 03:47:54;;;;;;;7.13;4.93;;;12.60;99.90;;;;;;5035758;28;20375;-61
2024/02/16 03:50:22;;;;;;;10.25;5.20;;;12.60;99.90;;;;;;5035785;28;20580;-61
2024/02/16 03:52:49;;;;;;;8.85;4.68;;;12.60;99.90;;;;;;5035994;28;20045;-61
2024/02/16 03:55:16;;;;;;;11.48;5.10;;;12.60;99.90;;;;;;5035543;28;20045;-60
2024/02/16 03:57:42;;;;;;;8.50;4.80;;;12.60;99.90;;;;;;5035947;28;20037;-61
2024/02/16 04:00:09;;;;;;;7.53;5.35;;;12.60;99.90;;;;;;5035753;28;20045;-61
2024/02/16 04:02:40;;;;;;;9.32;5.30;;;12.60;99.90;;;;;;5036012;28;20044;-62
2024/02/16 04:05:07;;;;;;;8.32;5.15;;;12.50;99.90;;;;;;5035328;28;20045;-61
2024/02/16 04:07:34;;;;;;;7.85;5.30;;;12.40;99.90;;;;;;5035430;28;20041;-61
2024/02/16 04:10:01;;;;;;;7.88;5.50;;;12.40;99.90;;;;;;5035113;28;20049;-61
2024/02/16 04:12:28;;;;;;;8.68;5.05;;;12.30;99.90;;;;;;5035060;28;20504;-61
2024/02/16 04:14:55;;;;;;;9.43;5.85;;;12.20;99.90;;;;;;5034733;28;20060;-62
2024/02/16 04:17:22;;;;;;;8.93;5.63;;;12.20;99.90;;;;;;5035123;28;20065;-61
2024/02/16 04:19:49;;;;;;;10.32;5.63;;;12.10;99.90;;;;;;5035478;28;20065;-61
2024/02/16 04:22:16;;;;;;;9.40;5.60;;;12.10;99.90;;;;;;5035120;28;20448;-61
2024/02/16 04:24:43;;;;;;;8.27;5.82;;;12.10;99.90;;;;;;5033913;28;20386;-61
2024/02/16 04:27:09;;;;;;;8.35;5.97;;;12.10;99.90;;;;;;5035153;28;20091;-61
2024/02/16 04:29:36;;;;;;;7.55;5.75;;;12.10;99.90;;;;;;5034891;28;20550;-61
2024/02/16 04:32:03;;;;;;;9.07;6.25;;;12.00;99.90;;;;;;5035013;28;20049;-61
2024/02/16 04:34:30;;;;;;;9.02;6.13;;;12.00;99.90;;;;;;5035065;28;20081;-62
2024/02/16 04:36:57;;;;;;;8.02;5.53;;;12.00;99.90;;;;;;5034635;28;20121;-61
2024/02/16 04:39:24;;;;;;;7.35;5.90;;;12.00;99.90;;;;;;5034894;28;20076;-61
2024/02/16 04:41:53;;;;;;;8.13;6.18;;;12.00;99.90;;;;;;5034785;28;20041;-61
2024/02/16 04:44:20;;;;;;;7.45;5.85;;;11.90;99.90;;;;;;5034920;28;20045;-66
2024/02/16 04:46:47;;;;;;;7.28;5.85;;;11.90;99.90;;;;;;5034881;28;20047;-67
2024/02/16 04:49:13;;;;;;;7.68;5.72;;;11.90;99.90;;;;;;5034805;28;20049;-67
2024/02/16 04:51:41;;;;;;;6.53;5.78;;;11.80;99.90;;;;;;5034864;28;20053;-67
2024/02/16 04:54:08;;;;;;;6.63;5.43;;;11.80;99.90;;;;;;5033518;28;20057;-67
2024/02/16 04:56:34;;;;;;;6.78;4.97;;;11.90;99.90;;;;;;5034518;28;20369;-67
2024/02/16 04:59:01;;;;;;;6.25;4.55;;;11.90;99.90;;;;;;5034709;28;20068;-67
2024/02/16 05:01:29;;;;;;;5.85;4.65;;;11.80;99.90;;;;;;5034554;28;20038;-66
2024/02/16 05:03:56;;;;;;;6.03;4.70;;;11.90;99.90;;;;;;5034705;28;20045;-66
2024/02/16 05:06:24;;;;;;;5.35;4.47;;;11.80;99.90;;;;;;5034227;28;20049;-66
2024/02/16 05:08:51;;;;;;;6.18;4.00;;;11.80;99.90;;;;;;5034583;28;20095;-66
2024/02/16 05:11:18;;;;;;;6.00;4.00;;;11.80;99.90;;;;;;5032888;28;20390;-66
2024/02/16 05:13:45;;;;;;;8.15;4.63;;;11.90;99.90;;;;;;5034104;28;20123;-66
2024/02/16 05:16:12;;;;;;;5.35;3.55;;;11.90;99.90;;;;;;5034228;28;20038;-67
2024/02/16 05:18:40;;;;;;;4.55;3.75;;;11.80;99.90;;;;;;5034070;28;20077;-67
2024/02/16 05:21:07;;;;;;;6.40;3.90;;;11.80;99.90;;;;;;5033895;28;20041;-67
2024/02/16 05:23:34;;;;;;;4.78;3.97;;;11.80;99.90;;;;;;5033646;28;20130;-67
2024/02/16 05:26:01;;;;;;;6.22;4.13;;;11.80;99.90;;;;;;5033918;28;20049;-67
2024/02/16 05:28:29;;;;;;;4.55;3.47;;;11.80;99.90;;;;;;5034159;28;20091;-67
2024/02/16 05:30:55;;;;;;;4.68;3.60;;;11.80;99.90;;;;;;5034139;28;20064;-67
2024/02/16 05:33:22;;;;;;;4.63;3.55;;;11.80;99.90;;;;;;5033723;28;20064;-67
2024/02/16 05:35:54;;;;;;;4.97;3.58;;;11.70;99.90;;;;;;5033913;28;20060;-67
2024/02/16 05:38:32;;;;;;;5.22;3.53;;;11.80;99.90;;;;;;5033669;28;20041;-67
2024/02/16 05:40:59;;;;;;;5.30;3.90;;;11.70;99.90;;;;;;5034113;28;20095;-67
2024/02/16 05:43:26;;;;;;;6.35;3.95;;;11.70;99.90;;;;;;5033774;28;20508;-67
2024/02/16 05:45:53;;;;;;;5.40;4.22;;;11.70;99.90;;;;;;5033611;28;20046;-67
2024/02/16 05:48:21;;;;;;;6.85;4.43;;;11.60;99.90;;;;;;5033774;28;20048;-67
2024/02/16 05:50:49;;;;;;;5.07;4.30;;;11.60;99.90;;;;;;5033811;28;20049;-65
2024/02/16 05:53:16;;;;;;;6.35;4.60;;;11.60;99.90;;;;;;5033925;28;20068;-65
2024/02/16 05:55:44;;;;;;;6.05;4.32;;;11.60;99.90;;;;;;5033442;28;20038;-65
2024/02/16 05:58:12;;;;;;;6.70;3.80;;;11.60;99.90;;;;;;5033613;28;20046;-65
2024/02/16 06:00:39;;;;;;;4.65;3.72;;;11.50;99.90;;;;;;5033484;28;20045;-67
2024/02/16 06:03:07;;;;;;;6.28;3.78;;;11.50;99.90;;;;;;5033699;28;20475;-62
2024/02/16 06:05:34;;;;;;;4.93;3.10;;;11.50;99.90;;;;;;5033752;28;20045;-62
2024/02/16 06:08:01;;;;;;;3.42;2.70;;;11.50;99.90;;;;;;5033446;28;20056;-62
2024/02/16 06:10:28;;;;;;;3.60;2.67;;;11.50;99.90;;;;;;5033430;28;20041;-63
2024/02/16 06:12:54;;;;;;;3.03;2.25;;;11.40;99.90;;;;;;5033668;28;20053;-63
2024/02/16 06:15:21;;;;;;;3.22;2.28;;;11.40;99.90;;;;;;5033096;28;20045;-62
2024/02/16 06:17:48;;;;;;;3.97;2.10;;;11.40;99.90;;;;;;5033398;28;20475;-62
2024/02/16 06:20:16;;;;;;;3.08;1.80;;;11.40;99.90;;;;;;5033498;28;20048;-63
2024/02/16 06:22:46;;;;;;;2.97;2.10;;;11.40;99.90;;;;;;5033290;28;20038;-63
2024/02/16 06:25:13;;;;;;;3.15;2.20;;;11.40;99.90;;;;;;5033431;28;20502;-63
2024/02/16 06:27:40;;;;;;;4.65;2.05;;;11.30;99.90;;;;;;5033546;28;20069;-64
2024/02/16 06:30:07;;;;;;;5.07;2.20;;;11.30;99.90;;;;;;5032139;28;20509;-64
2024/02/16 06:32:34;;;;;;;2.92;1.95;;;11.30;99.90;;;;;;5033505;28;20052;-64
2024/02/16 06:35:01;;;;;;;6.45;1.85;;;11.30;99.90;;;;;;5033300;28;20037;-64
2024/02/16 06:37:28;;;;;;;4.80;1.80;;;11.30;99.90;;;;;;5036942;28;20128;-64
2024/02/16 06:39:55;;;;;;;4.90;2.15;;;11.20;99.90;;;;;;5037631;28;20119;-64
2024/02/16 06:42:21;;;;;;;3.00;1.80;;;11.20;99.90;;;;;;5037155;28;20382;-64
2024/02/16 06:44:49;;;;;;;3.50;1.90;;;11.20;99.90;;;;;;5037299;28;20061;-64
2024/02/16 06:47:15;;;;;;;3.08;1.70;;;11.20;99.90;;;;;;5037394;28;20045;-64
2024/02/16 06:49:42;;;;;;;3.08;1.60;;;11.10;99.90;;;;;;5037170;28;20047;-64
2024/02/16 06:52:10;;;;;;;5.25;1.58;;;11.10;99.90;;;;;;5037312;28;20473;-64
2024/02/16 06:54:37;;;;;;;4.05;1.60;;;11.10;99.90;;;;;;5037030;28;20132;-64
2024/02/16 06:57:04;;;;;;;3.20;1.55;;;11.10;99.90;;;;;;5037009;28;20138;-64
2024/02/16 06:59:30;;;;;;;2.28;1.55;;;11.00;99.90;;;;;;5036992;28;20069;-64
2024/02/16 07:01:57;;;;;;;3.15;1.60;;;11.00;99.90;;;;;;5036946;28;20042;-64
2024/02/16 07:04:24;;;;;;;2.53;1.58;;;11.00;99.90;;;;;;5036962;28;20061;-65
2024/02/16 07:06:51;;;;;;;3.25;1.63;;;11.00;99.90;;;;;;5036792;28;20099;-65
2024/02/16 07:09:18;;;;;;;3.53;1.60;;;11.00;99.90;;;;;;5036822;28;20038;-65
2024/02/16 07:11:46;;;;;;;2.72;1.65;;;11.00;99.90;;;;;;5036818;28;20049;-65
2024/02/16 07:14:17;;;;;;;6.13;1.75;;;10.90;99.90;;;;;;5036452;28;20498;-65
2024/02/16 07:16:43;;;;;;;4.22;1.52;;;11.00;99.90;;;;;;5036560;28;20108;-65
2024/02/16 07:19:10;;;;;;;4.65;2.05;;;10.90;99.90;;;;;;5036715;28;20041;-65
2024/02/16 07:21:37;;;;;;;3.10;1.77;;;10.90;99.90;;;;;;5036478;28;20128;-65
2024/02/16 07:24:04;;;;;;;3.72;1.73;;;10.80;99.90;;;;;;5036342;28;20056;-65
2024/02/16 07:26:31;;;;;;;3.88;1.98;;;10.80;99.90;;;;;;5036346;28;20117;-65
2024/02/16 07:28:57;;;;;;;5.10;1.90;;;10.80;99.90;;;;;;5036289;28;20045;-65
2024/02/16 07:31:24;;;;;;;4.32;1.83;;;10.80;99.90;;;;;;5036510;28;20139;-65
2024/02/16 07:33:51;;;;;;;3.53;1.85;;;10.80;99.90;;;;;;5036414;28;20042;-65
2024/02/16 07:36:18;;;;;;;3.70;2.03;;;10.70;99.90;;;;;;5036078;28;20133;-65
2024/02/16 07:38:46;;;;;;;3.42;2.03;;;10.70;99.90;;;;;;5035214;28;20038;-65
2024/02/16 07:41:13;;;;;;;2.92;2.13;;;10.70;99.90;;;;;;5036192;28;20037;-65
2024/02/16 07:43:40;;;;;;;3.05;2.03;;;10.60;99.90;;;;;;5036086;28;20041;-65
2024/02/16 07:46:08;;;;;;;3.67;2.13;;;10.60;99.90;;;;;;5035506;28;20116;-65
2024/02/16 07:48:35;;;;;;;4.30;2.40;;;10.60;99.90;;;;;;5036127;28;20049;-64
2024/02/16 07:51:03;;;;;;;3.38;2.08;;;10.50;99.90;;;;;;5035970;28;20053;-65
2024/02/16 07:53:30;;;;;;;5.28;2.00;;;10.50;99.90;;;;;;5036055;28;20038;-65
2024/02/16 07:55:58;;;;;;;3.80;1.92;;;10.60;99.90;;;;;;5035811;28;20462;-65
2024/02/16 07:58:25;;;;;;;5.45;2.13;;;10.50;99.90;;;;;;5035761;28;20071;-65
2024/02/16 08:00:52;;;;;;;4.55;1.83;;;10.50;99.90;;;;;;5035686;28;20120;-65
2024/02/16 08:03:19;;;;;;;4.90;2.00;;;10.50;99.90;;;;;;5035903;28;20065;-65
2024/02/16 08:05:46;;;;;;;4.95;2.45;;;10.60;99.90;;;;;;5035523;28;20513;-65
2024/02/16 08:08:13;;;;;;;4.40;2.25;;;10.60;99.90;;;;;;5035640;28;20560;-65
2024/02/16 08:10:39;;;;;;;3.97;2.10;;;10.60;99.90;;;;;;5035772;28;20057;-65
2024/02/16 08:13:06;;;;;;;4.15;2.08;;;10.70;99.90;;;;;;5035615;28;20049;-65
2024/02/16 08:15:33;;;;;;;4.03;2.20;;;10.70;99.90;;;;;;5035305;28;20115;-65
2024/02/16 08:18:00;;;;;;;5.15;2.70;;;10.70;99.90;;;;;;5035161;28;20034;-65
2024/02/16 08:20:27;;;;;;;6.30;3.00;;;10.70;99.90;;;;;;5035532;28;20470;-65
2024/02/16 08:22:53;;;;;;;6.78;2.95;;;10.70;99.90;;;;;;5035682;28;20033;-65
2024/02/16 08:25:20;;;;;;;8.75;3.28;;;10.60;99.90;;;;;;5035206;28;20107;-65
2024/02/16 08:27:47;;;;;;;8.00;3.17;;;10.60;99.90;;;;;;5035331;28;20111;-65
2024/02/16 08:30:14;;;;;;;8.57;3.88;;;10.60;99.90;;;;;;5035361;28;20100;-66
2024/02/16 08:32:41;;;;;;;9.10;3.38;;;10.70;99.90;;;;;;5034936;28;20080;-66
2024/02/16 08:35:08;;;;;;;9.55;4.13;;;10.60;99.90;;;;;;5034989;28;20038;-64
2024/02/16 08:37:35;;;;;;;8.10;3.70;;;10.60;99.90;;;;;;5034843;28;20044;-65
2024/02/16 08:40:04;;;;;;;9.55;4.75;;;10.60;99.90;;;;;;5035342;28;20045;-65
2024/02/16 08:42:31;;;;;;;11.25;3.97;;;10.60;99.90;;;;;;5034885;28;20056;-62
2024/02/16 08:45:00;;;;;;;10.13;3.60;;;10.50;99.90;;;;;;5034687;28;20075;-66
2024/02/16 08:47:27;;;;;;;10.50;4.10;;;10.40;99.90;;;;;;5035213;28;20552;-64
2024/02/16 08:49:54;;;;;;;8.52;3.92;;;10.40;99.90;;;;;;5034726;28;20136;-64
2024/02/16 08:52:21;;;;;;;9.75;3.80;;;10.40;99.90;;;;;;5035138;28;20060;-64
2024/02/16 08:54:47;;;;;;;9.80;4.10;;;10.40;99.90;;;;;;5033934;28;20371;-65
2024/02/16 08:57:14;;;;;;;11.93;4.32;;;10.40;99.90;;;;;;5028667;28;20478;-64
2024/02/16 08:59:41;;;;;;;7.40;3.78;;;10.30;99.90;;;;;;5032997;28;20095;-63
2024/02/16 09:02:08;;;;;;;10.40;4.70;;;10.30;99.90;;;;;;5031159;28;20049;-64
2024/02/16 09:04:35;;;;;;;11.90;4.43;;;10.40;99.90;;;;;;5049777;28;20477;-65
2024/02/16 09:07:01;;;;;;;13.23;4.68;;;10.40;99.90;;;;;;5033259;28;20045;-64
2024/02/16 09:09:28;;;;;;;10.82;4.43;;;10.40;99.90;;;;;;5034027;28;20153;-65
2024/02/16 09:11:56;;;;;;;13.60;4.57;;;10.50;99.90;;;;;;5033996;28;20121;-65
2024/02/16 09:14:22;;;;;;;11.93;4.90;;;10.50;99.90;;;;;;5033156;28;20211;-65
2024/02/16 09:16:52;;;;;;;11.88;5.05;;;10.50;99.90;;;;;;5037705;28;20037;-64
2024/02/16 09:19:19;;;;;;;14.38;4.72;;;10.50;99.90;;;;;;5053252;28;20045;-64
2024/02/16 09:21:46;;;;;;;13.45;4.35;;;10.50;99.90;;;;;;5053349;28;20094;-65
2024/02/16 09:24:18;;;;;;;16.95;5.28;;;10.50;99.90;;;;;;5054021;28;20119;-64
2024/02/16 09:26:46;;;;;;;8.52;4.13;;;10.50;99.90;;;;;;5053501;28;20408;-64
2024/02/16 09:29:13;;;;;;;13.20;5.15;;;10.60;99.90;;;;;;5053202;28;20056;-65
2024/02/16 09:31:40;;;;;;;11.50;5.13;;;10.60;99.90;;;;;;5052936;28;20496;-64
2024/02/16 09:34:07;;;;;;;12.52;4.90;;;10.60;99.90;;;;;;5054122;28;20041;-64
2024/02/16 09:36:36;;;;;;;14.27;4.72;;;10.60;99.90;;;;;;5053727;28;20049;-64
2024/02/16 09:39:03;;;;;;;14.02;4.70;;;10.60;99.90;;;;;;5054029;28;20044;-64
2024/02/16 09:41:29;;;;;;;9.65;3.92;;;10.70;99.90;;;;;;5052393;28;20077;-64
2024/02/16 09:43:56;;;;;;;13.40;4.35;;;10.70;99.90;;;;;;5052646;28;20040;-64
2024/02/16 09:46:23;;;;;;;15.30;4.50;;;10.80;99.90;;;;;;5052080;28;20039;-64
2024/02/16 09:48:52;;;;;;;10.73;4.35;;;10.80;99.90;;;;;;5053670;28;20493;-64
2024/02/16 09:51:19;;;;;;;12.07;4.55;;;10.80;99.90;;;;;;5053832;28;20041;-64
2024/02/16 09:53:47;;;;;;;12.32;4.55;;;10.90;99.90;;;;;;5053523;28;20393;-64
2024/02/16 09:56:14;;;;;;;13.13;4.10;;;10.90;99.90;;;;;;5051954;28;20072;-64
2024/02/16 09:58:40;;;;;;;12.55;4.50;;;10.90;99.90;;;;;;5053607;28;20037;-64
2024/02/16 10:01:08;;;;;;;10.85;4.50;;;10.90;99.90;;;;;;5053444;28;20033;-64
2024/02/16 10:03:35;;;;;;;12.68;4.82;;;11.00;99.90;;;;;;5053788;28;20072;-64
2024/02/16 10:06:02;;;;;;;10.60;4.38;;;11.00;99.90;;;;;;5053216;28;20041;-64
2024/02/16 10:08:29;;;;;;;11.82;4.55;;;11.00;99.90;;;;;;5053611;28;20470;-64
2024/02/16 10:10:56;;;;;;;11.93;4.20;;;11.00;99.90;;;;;;5053367;28;20041;-65
2024/02/16 10:13:23;;;;;;;13.15;4.47;;;11.00;99.90;;;;;;5053225;28;20043;-64
2024/02/16 10:15:50;;;;;;;11.23;3.63;;;11.10;99.90;;;;;;5053359;28;20076;-64
2024/02/16 10:18:16;;;;;;;9.18;3.58;;;11.10;99.90;;;;;;5052107;28;20041;-62
2024/02/16 10:20:43;;;;;;;10.15;4.32;;;11.10;99.90;;;;;;5053337;28;20496;-63
2024/02/16 10:23:10;;;;;;;13.00;3.78;;;11.10;99.90;;;;;;5051983;28;20041;-63
2024/02/16 10:25:37;;;;;;;12.60;3.55;;;11.20;99.90;;;;;;5053395;28;20056;-64
2024/02/16 10:28:04;;;;;;;6.68;3.28;;;11.30;99.90;;;;;;5053352;28;20045;-62
2024/02/16 10:30:31;;;;;;;12.32;4.18;;;11.30;99.90;;;;;;5053496;28;20072;-65
2024/02/16 10:32:59;;;;;;;11.90;3.67;;;11.40;99.90;;;;;;5053427;28;20055;-64
2024/02/16 10:35:28;;;;;;;10.38;3.80;;;11.40;99.90;;;;;;5053154;28;20103;-64
2024/02/16 10:37:56;;;;;;;13.13;4.00;;;11.30;99.90;;;;;;5052718;28;20067;-66
2024/02/16 10:40:23;;;;;;;11.85;3.70;;;11.30;99.90;;;;;;5052654;28;20045;-63
2024/02/16 10:42:51;;;;;;;9.90;3.63;;;11.30;99.90;;;;;;5052611;28;20039;-62
2024/02/16 10:45:19;;;;;;;12.88;3.60;;;11.50;99.90;;;;;;5052490;28;20473;-64
2024/02/16 10:47:46;;;;;;;12.73;3.30;;;11.40;99.90;;;;;;5052666;28;20466;-65
2024/02/16 10:50:12;;;;;;;8.88;3.15;;;11.40;99.90;;;;;;5052378;28;20528;-68
2024/02/16 10:52:40;;;;;;;11.13;3.72;;;11.40;99.90;;;;;;5052489;28;20044;-65
2024/02/16 10:55:07;;;;;;;10.27;3.60;;;11.40;99.90;;;;;;5052417;28;20072;-63
2024/02/16 10:57:35;;;;;;;9.00;3.17;;;11.40;99.90;;;;;;5052505;28;20053;-64
2024/02/16 11:00:02;;;;;;;10.82;3.10;;;11.50;99.90;;;;;;5051127;28;20103;-63
2024/02/16 11:02:30;;;;;;;10.88;3.10;;;11.50;99.90;;;;;;5052507;28;20049;-64
2024/02/16 11:04:57;;;;;;;9.45;2.95;;;11.60;99.90;;;;;;5052095;28;20572;-64
2024/02/16 11:07:23;;;;;;;10.32;2.78;;;11.60;99.90;;;;;;5050964;28;20073;-61
2024/02/16 11:09:50;;;;;;;8.25;2.78;;;11.70;99.90;;;;;;5052150;28;20076;-61
2024/02/16 11:12:17;;;;;;;9.73;2.85;;;11.70;99.90;;;;;;5052056;28;20128;-61
2024/02/16 11:14:44;;;;;;;9.30;2.95;;;11.70;99.90;;;;;;5051765;28;20057;-61
2024/02/16 11:17:11;;;;;;;10.98;2.78;;;11.70;99.90;;;;;;5052264;28;20037;-61
2024/02/16 11:19:38;;;;;;;11.15;2.47;;;11.80;99.90;;;;;;5052474;28;20076;-66
2024/02/16 11:22:08;;;;;;;8.43;2.15;;;11.80;99.90;;;;;;5053606;28;20155;-65
2024/02/16 11:24:35;;;;;;;6.28;2.22;;;11.80;99.90;;;;;;5055941;28;20107;-65
2024/02/16 11:27:02;;;;;;;9.32;3.05;;;11.90;99.90;;;;;;5055896;28;20041;-64
2024/02/16 11:29:29;;;;;;;9.68;2.63;;;11.90;99.90;;;;;;5055567;28;20041;-64
2024/02/16 11:31:56;;;;;;;9.27;2.97;;;12.00;99.90;;;;;;5055420;28;20045;-62
2024/02/16 11:34:23;;;;;;;8.05;2.80;;;12.00;99.90;;;;;;5055600;28;20029;-61
2024/02/16 11:36:50;;;;;;;10.50;3.00;;;12.00;99.90;;;;;;5055818;28;20036;-61
2024/02/16 11:39:19;;;;;;;7.60;3.50;;;12.00;99.90;;;;;;5055367;28;20532;-62
2024/02/16 11:41:46;;;;;;;8.20;2.88;;;12.10;99.90;;;;;;5055550;28;20072;-64
2024/02/16 11:44:13;;;;;;;6.10;2.45;;;12.10;99.90;;;;;;5054835;28;20045;-63
2024/02/16 11:46:40;;;;;;;7.82;2.67;;;12.20;99.90;;;;;;5056080;28;20045;-64
2024/02/16 11:49:07;;;;;;;7.20;2.88;;;12.30;99.90;;;;;;5054547;28;20063;-64
2024/02/16 11:51:34;;;;;;;6.72;2.60;;;12.40;99.90;;;;;;5056053;28;20489;-64
2024/02/16 11:54:00;;;;;;;5.65;3.05;;;12.40;99.90;;;;;;5055987;28;20041;-64
2024/02/16 11:56:27;;;;;;;5.50;2.20;;;12.50;99.90;;;;;;5040941;28;20045;-65
2024/02/16 11:58:55;;;;;;;6.47;2.40;;;12.50;99.90;;;;;;5035049;28;20397;-65
2024/02/16 12:01:21;;;;;;;5.25;2.20;;;12.50;99.90;;;;;;5034998;28;20042;-65
2024/02/16 12:03:48;;;;;;;8.70;2.08;;;12.60;99.90;;;;;;5034993;28;20037;-64
2024/02/16 12:06:15;;;;;;;6.25;2.13;;;12.60;99.90;;;;;;5035005;28;20482;-64
2024/02/16 12:08:42;;;;;;;5.13;2.35;;;12.70;99.90;;;;;;5033667;28;20557;-64
2024/02/16 12:11:08;;;;;;;6.63;2.35;;;12.70;99.90;;;;;;5034766;28;20076;-64
2024/02/16 12:13:35;;;;;;;7.07;2.60;;;12.70;99.90;;;;;;5035318;28;20368;-64
2024/02/16 12:16:02;;;;;;;7.15;2.42;;;12.70;99.90;;;;;;5034879;28;20049;-64
2024/02/16 12:18:29;;;;;;;7.13;2.00;;;12.70;99.90;;;;;;5034425;28;20045;-65
2024/02/16 12:20:56;;;;;;;6.40;2.38;;;12.70;99.90;;;;;;5034904;28;20478;-66
2024/02/16 12:23:23;;;;;;;6.10;2.17;;;12.80;99.90;;;;;;5034906;28;20051;-66
2024/02/16 12:25:50;;;;;;;5.13;1.90;;;12.80;99.90;;;;;;5034647;28;20049;-66
2024/02/16 12:28:16;;;;;;;7.18;2.20;;;12.80;99.90;;;;;;5034558;28;20064;-65
2024/02/16 12:30:43;;;;;;;5.68;1.65;;;12.90;99.90;;;;;;5034864;28;20052;-65
2024/02/16 12:33:10;;;;;;;3.88;1.88;;;13.00;99.90;;;;;;5034666;28;20045;-65
2024/02/16 12:35:37;;;;;;;4.40;2.10;;;13.00;99.90;;;;;;5034325;28;20402;-65
2024/02/16 12:38:04;;;;;;;4.68;1.90;;;13.00;99.90;;;;;;5034382;28;20048;-65
2024/02/16 12:40:30;;;;;;;3.67;1.75;;;13.00;99.90;;;;;;5034713;28;20045;-65
2024/02/16 12:42:57;;;;;;;5.78;1.98;;;13.00;99.90;;;;;;5034569;28;20047;-62
2024/02/16 12:45:24;;;;;;;4.07;1.42;;;13.20;99.90;;;;;;5033196;28;20538;-66